Baracaldo, Spain
Current Conditions -  °F | °C
As of 10:00 PM on Thursday 27 Nov 2014 (Local Time) from LEBB Reporting Station
Clear Clear  
Wind Chill: 63°   Ceiling: Unl
Heat Index: 63°   Visibility: 6mi
Dew Point: 48°   Wind: 18mph
Humidity: 59%   Direction: 150°SSE
Pressure: 29.21"   Gusts: NA
Location:  43.3°N, 2.98°W
Report Text: LEBB 272100Z 15016KT 100V190 CAVOK 17/09 Q0989 NOSIG
Loading
Personal Weather Stations






























Interactive Weather Map New forecast layout! Learn more

10-Day Weather Forecast

Advertisements
Track Severe Weather on mobile